createdAt,value
2023-04-17T00:00:23.382Z,45.54
2023-04-17T00:02:50.476Z,45.48
2023-04-17T00:05:17.291Z,45.57
2023-04-17T00:07:44.851Z,45.31
2023-04-17T00:10:11.851Z,45.42
2023-04-17T00:12:38.458Z,45.58
2023-04-17T00:15:05.654Z,45.33
2023-04-17T00:17:32.247Z,45.47
2023-04-17T00:19:58.839Z,45.48
2023-04-17T00:22:25.450Z,45.52
2023-04-17T00:24:52.045Z,45.60
2023-04-17T00:27:18.683Z,45.63
2023-04-17T00:29:45.228Z,45.51
2023-04-17T00:32:11.956Z,45.49
2023-04-17T00:34:40.496Z,45.49
2023-04-17T00:37:07.104Z,45.49
2023-04-17T00:39:33.719Z,45.59
2023-04-17T00:42:00.750Z,45.53
2023-04-17T00:44:27.392Z,45.32
2023-04-17T00:46:53.993Z,45.66
2023-04-17T00:49:20.614Z,45.83
2023-04-17T00:51:47.202Z,45.96
2023-04-17T00:54:13.922Z,45.67
2023-04-17T00:56:42.292Z,45.76
2023-04-17T00:59:11.884Z,45.47
2023-04-17T01:01:38.801Z,45.45
2023-04-17T01:04:05.595Z,45.42
2023-04-17T01:06:32.272Z,45.52
2023-04-17T01:08:59.748Z,45.57
2023-04-17T01:11:26.343Z,45.64
2023-04-17T01:13:53.126Z,45.53
2023-04-17T01:16:20.136Z,46.09
2023-04-17T01:18:50.044Z,45.75
2023-04-17T01:21:16.791Z,45.74
2023-04-17T01:23:53.289Z,45.53
2023-04-17T01:26:22.222Z,45.51
2023-04-17T01:28:52.984Z,45.58
2023-04-17T01:31:19.751Z,45.61
2023-04-17T01:33:46.985Z,45.70
2023-04-17T01:36:13.579Z,45.74
2023-04-17T01:38:40.212Z,45.80
2023-04-17T01:41:10.073Z,45.42
2023-04-17T01:43:41.900Z,45.61
2023-04-17T01:46:08.914Z,45.21
2023-04-17T01:48:36.204Z,45.52
2023-04-17T01:51:03.354Z,45.47
2023-04-17T01:53:30.600Z,45.60
2023-04-17T01:55:57.241Z,45.53
2023-04-17T01:58:24.001Z,45.36
2023-04-17T02:00:51.306Z,45.26
2023-04-17T02:03:18.221Z,45.60
2023-04-17T02:05:46.482Z,45.42
2023-04-17T02:08:14.067Z,45.66
2023-04-17T02:10:41.897Z,45.43
2023-04-17T02:13:09.229Z,45.44
2023-04-17T02:15:36.838Z,45.50
2023-04-17T02:18:06.090Z,45.75
2023-04-17T02:20:33.578Z,45.91
2023-04-17T02:23:00.837Z,45.58
2023-04-17T02:25:28.144Z,45.73
2023-04-17T02:27:56.156Z,45.49
2023-04-17T02:30:26.288Z,45.40
2023-04-17T02:32:54.136Z,45.58
2023-04-17T02:35:21.868Z,45.73
2023-04-17T02:37:48.539Z,45.53
2023-04-17T02:40:15.505Z,45.57
2023-04-17T02:42:42.149Z,45.56
2023-04-17T02:45:09.400Z,45.64
2023-04-17T02:47:36.472Z,45.53
2023-04-17T02:50:03.526Z,45.71
2023-04-17T02:52:31.099Z,45.55
2023-04-17T02:54:57.742Z,45.59
2023-04-17T02:57:24.564Z,45.85
2023-04-17T02:59:51.601Z,45.74
2023-04-17T03:02:21.972Z,45.50
2023-04-17T03:04:50.416Z,45.76
2023-04-17T03:07:21.151Z,45.94
2023-04-17T03:09:48.551Z,46.12
2023-04-17T03:12:16.735Z,45.57
2023-04-17T03:14:43.749Z,45.88
2023-04-17T03:17:11.731Z,46.13
2023-04-17T03:19:38.324Z,45.83
2023-04-17T03:22:04.908Z,45.51
2023-04-17T03:24:31.671Z,46.03
2023-04-17T03:26:59.014Z,45.84
2023-04-17T03:29:25.807Z,45.62
2023-04-17T03:31:52.833Z,45.86
2023-04-17T03:34:22.003Z,46.10
2023-04-17T03:36:48.793Z,45.55
2023-04-17T03:39:15.797Z,45.72
2023-04-17T03:41:42.358Z,45.86
2023-04-17T03:44:09.180Z,45.93
2023-04-17T03:46:35.930Z,45.67
2023-04-17T03:49:02.498Z,45.77
2023-04-17T03:51:29.118Z,46.13
2023-04-17T03:53:55.761Z,46.29
2023-04-17T03:56:22.320Z,46.00
2023-04-17T03:58:48.985Z,45.79
2023-04-17T04:01:15.883Z,46.03
2023-04-17T04:03:42.801Z,45.96
2023-04-17T04:06:09.777Z,45.74
2023-04-17T04:08:36.342Z,45.90
2023-04-17T04:11:03.447Z,46.18
2023-04-17T04:13:30.033Z,46.01
2023-04-17T04:15:56.765Z,46.05
2023-04-17T04:18:23.396Z,46.13
2023-04-17T04:20:49.973Z,46.31
2023-04-17T04:23:16.837Z,46.06
2023-04-17T04:25:43.568Z,46.19
2023-04-17T04:28:10.695Z,46.21
2023-04-17T04:30:38.771Z,46.24
2023-04-17T04:33:06.035Z,46.51
2023-04-17T04:35:32.912Z,46.21
2023-04-17T04:38:03.060Z,46.34
2023-04-17T04:40:30.842Z,46.28
2023-04-17T04:42:58.579Z,46.27
2023-04-17T04:45:25.225Z,46.00
2023-04-17T04:47:51.826Z,46.21
2023-04-17T04:50:18.578Z,46.24
2023-04-17T04:52:45.183Z,46.02
2023-04-17T04:55:12.632Z,46.04
2023-04-17T04:57:39.198Z,46.31
2023-04-17T05:00:06.644Z,46.12
2023-04-17T05:02:33.517Z,46.50
2023-04-17T05:05:00.473Z,46.10
2023-04-17T05:07:27.308Z,46.25
2023-04-17T05:09:53.876Z,46.10
2023-04-17T05:12:20.442Z,46.24
2023-04-17T05:14:47.936Z,46.31
2023-04-17T05:17:14.502Z,46.33
2023-04-17T05:19:41.075Z,46.41
2023-04-17T05:22:07.677Z,46.41
2023-04-17T05:24:34.247Z,46.41
2023-04-17T05:27:02.162Z,46.38
2023-04-17T05:29:28.807Z,46.36
2023-04-17T05:31:55.414Z,46.41
2023-04-17T05:34:22.108Z,46.45
2023-04-17T05:36:48.650Z,46.44
2023-04-17T05:39:15.317Z,46.29
2023-04-17T05:41:41.912Z,46.47
2023-04-17T05:44:08.557Z,46.56
2023-04-17T05:46:35.153Z,46.55
2023-04-17T05:49:01.747Z,46.44
2023-04-17T05:51:28.790Z,46.45
2023-04-17T05:53:55.427Z,46.36
2023-04-17T05:56:21.996Z,46.40
2023-04-17T05:58:48.549Z,46.56
2023-04-17T06:01:17.743Z,46.59
2023-04-17T06:03:44.581Z,46.34
2023-04-17T06:06:11.432Z,46.21
2023-04-17T06:08:38.041Z,46.55
2023-04-17T06:11:04.838Z,46.47
2023-04-17T06:13:32.190Z,46.21
2023-04-17T06:15:58.787Z,46.25
2023-04-17T06:18:25.383Z,46.25
2023-04-17T06:20:51.994Z,46.49
2023-04-17T06:23:18.559Z,46.40
2023-04-17T06:25:45.098Z,46.35
2023-04-17T06:28:14.083Z,46.31
2023-04-17T06:30:40.843Z,46.19
2023-04-17T06:33:07.565Z,46.56
2023-04-17T06:35:35.160Z,46.50
2023-04-17T06:38:01.741Z,46.22
2023-04-17T06:40:28.315Z,46.24
2023-04-17T06:42:54.922Z,46.53
2023-04-17T06:45:21.580Z,46.55
2023-04-17T06:47:48.205Z,46.38
2023-04-17T06:50:15.387Z,46.57
2023-04-17T06:52:41.929Z,46.58
2023-04-17T06:55:09.392Z,46.35
2023-04-17T06:57:36.019Z,46.26
2023-04-17T07:00:03.223Z,46.32
2023-04-17T07:02:29.870Z,46.37
2023-04-17T07:04:56.517Z,46.34
2023-04-17T07:07:23.140Z,46.36
2023-04-17T07:09:49.751Z,46.50
2023-04-17T07:12:16.428Z,48.66
2023-04-17T07:14:43.023Z,48.93
2023-04-17T07:17:09.964Z,49.08
2023-04-17T07:19:37.500Z,48.62
2023-04-17T07:22:05.735Z,48.60
2023-04-17T07:24:35.223Z,48.14
2023-04-17T07:27:03.034Z,48.24
2023-04-17T07:29:29.697Z,48.14
2023-04-17T07:31:56.386Z,48.23
2023-04-17T07:34:25.217Z,48.12
2023-04-17T07:36:54.574Z,48.66
2023-04-17T07:39:21.377Z,49.18
2023-04-17T07:41:49.010Z,49.27
2023-04-17T07:44:16.169Z,48.95
2023-04-17T07:46:42.816Z,49.07
2023-04-17T07:49:11.478Z,49.27
2023-04-17T07:51:41.206Z,49.12
2023-04-17T07:54:08.143Z,48.80
2023-04-17T07:56:34.772Z,48.66
2023-04-17T07:59:01.346Z,48.43
2023-04-17T08:01:27.997Z,48.33
2023-04-17T08:03:55.718Z,48.29
2023-04-17T08:06:22.563Z,48.23
2023-04-17T08:08:49.288Z,48.25
2023-04-17T08:11:15.893Z,48.26
2023-04-17T08:13:42.461Z,48.19
2023-04-17T08:16:10.014Z,47.91
2023-04-17T08:18:39.531Z,47.89
2023-04-17T08:21:06.347Z,47.99
2023-04-17T08:23:33.056Z,47.83
2023-04-17T08:25:59.637Z,47.63
2023-04-17T08:28:26.371Z,47.81
2023-04-17T08:30:52.977Z,47.48
2023-04-17T08:33:19.599Z,47.62
2023-04-17T08:35:46.165Z,47.63
2023-04-17T08:38:14.837Z,47.70
2023-04-17T08:40:47.139Z,47.58
2023-04-17T08:43:19.534Z,47.60
2023-04-17T08:45:59.470Z,47.75
2023-04-17T08:48:26.051Z,47.80
2023-04-17T08:50:53.555Z,47.67
2023-04-17T08:53:21.004Z,48.09
2023-04-17T08:55:48.524Z,47.97
2023-04-17T08:58:15.608Z,48.11
2023-04-17T09:00:43.945Z,47.93
2023-04-17T09:03:14.315Z,47.79
2023-04-17T09:05:43.375Z,47.77
2023-04-17T09:08:20.906Z,47.80
2023-04-17T09:10:52.068Z,47.90
2023-04-17T09:13:24.943Z,48.13
2023-04-17T09:16:08.280Z,47.74
2023-04-17T09:18:36.014Z,47.89
2023-04-17T09:21:04.178Z,47.76
2023-04-17T09:23:32.605Z,47.96
2023-04-17T09:26:09.272Z,47.78
2023-04-17T09:28:36.093Z,47.94
2023-04-17T09:31:30.489Z,47.83
2023-04-17T09:33:59.072Z,47.83
2023-04-17T09:36:27.448Z,47.91
2023-04-17T09:38:54.445Z,47.70
2023-04-17T09:41:29.131Z,47.83
2023-04-17T09:43:57.188Z,47.85
2023-04-17T09:46:34.064Z,47.69
2023-04-17T09:49:18.795Z,47.67
2023-04-17T09:51:46.224Z,47.59
2023-04-17T09:54:15.049Z,47.43
2023-04-17T09:56:42.161Z,47.42
2023-04-17T09:59:09.805Z,46.99
2023-04-17T10:01:37.977Z,47.11
2023-04-17T10:04:05.656Z,46.85
2023-04-17T10:06:33.236Z,46.92
2023-04-17T10:09:00.042Z,46.46
2023-04-17T10:11:33.865Z,46.63
2023-04-17T10:14:10.855Z,46.43
2023-04-17T10:16:38.923Z,45.91
2023-04-17T10:19:24.217Z,45.82
2023-04-17T10:22:15.550Z,45.97
2023-04-17T10:24:43.092Z,45.65
2023-04-17T10:27:24.951Z,45.62
2023-04-17T10:30:02.298Z,45.24
2023-04-17T10:32:30.065Z,45.24
2023-04-17T10:35:22.746Z,45.49
2023-04-17T10:37:51.992Z,45.21
2023-04-17T10:40:22.521Z,45.26
2023-04-17T10:43:08.048Z,45.21
2023-04-17T10:46:09.801Z,45.25
2023-04-17T10:48:41.953Z,45.03
2023-04-17T10:51:24.061Z,45.06
2023-04-17T10:53:51.487Z,45.22
2023-04-17T10:56:20.030Z,45.14
2023-04-17T10:58:57.646Z,45.02
2023-04-17T11:01:32.745Z,44.74
2023-04-17T11:04:02.718Z,45.07
2023-04-17T11:06:31.615Z,44.50
2023-04-17T11:08:59.630Z,44.71
2023-04-17T11:11:42.905Z,44.68
2023-04-17T11:14:17.988Z,44.89
2023-04-17T11:16:47.214Z,45.07
2023-04-17T11:19:24.239Z,44.65
2023-04-17T11:21:52.395Z,44.81
2023-04-17T11:24:26.795Z,44.94
2023-04-17T11:26:53.917Z,44.76
2023-04-17T11:29:22.658Z,44.87
2023-04-17T11:31:51.877Z,44.81
2023-04-17T11:34:19.075Z,44.89
2023-04-17T11:36:52.971Z,44.57
2023-04-17T11:39:21.286Z,44.58
2023-04-17T11:41:47.978Z,44.35
2023-04-17T11:44:15.794Z,44.28
2023-04-17T11:46:42.545Z,44.44
2023-04-17T11:49:09.542Z,44.78
2023-04-17T11:51:36.693Z,44.64
2023-04-17T11:54:03.312Z,44.62
2023-04-17T11:56:30.243Z,44.90
2023-04-17T11:58:58.188Z,44.46
2023-04-17T12:01:28.806Z,44.31
2023-04-17T12:03:59.680Z,44.27
2023-04-17T12:06:36.984Z,44.18
2023-04-17T12:09:03.600Z,43.90
2023-04-17T12:11:33.610Z,44.16
2023-04-17T12:14:01.559Z,43.81
2023-04-17T12:16:29.456Z,43.94
2023-04-17T12:18:56.354Z,43.91
2023-04-17T12:21:26.284Z,44.07
2023-04-17T12:23:52.941Z,43.94
2023-04-17T12:26:19.509Z,43.63
2023-04-17T12:28:46.115Z,43.82
2023-04-17T12:31:12.942Z,43.89
2023-04-17T12:33:39.544Z,43.83
2023-04-17T12:36:06.922Z,43.21
2023-04-17T12:38:33.798Z,43.47
2023-04-17T12:41:00.397Z,43.69
2023-04-17T12:43:26.990Z,43.47
2023-04-17T12:45:53.651Z,43.88
2023-04-17T12:48:20.460Z,43.61
2023-04-17T12:50:47.053Z,43.41
2023-04-17T12:53:14.500Z,43.09
2023-04-17T12:55:41.818Z,43.60
2023-04-17T12:58:12.249Z,43.44
2023-04-17T13:00:40.675Z,43.43
2023-04-17T13:03:07.552Z,43.46
2023-04-17T13:05:34.401Z,43.25
2023-04-17T13:08:01.038Z,43.38
2023-04-17T13:10:27.917Z,43.47
2023-04-17T13:12:54.583Z,43.39
2023-04-17T13:15:21.833Z,43.45
2023-04-17T13:17:48.553Z,43.34
2023-04-17T13:20:15.303Z,43.47
2023-04-17T13:22:41.949Z,43.30
2023-04-17T13:25:09.039Z,43.23
2023-04-17T13:27:37.107Z,43.67
2023-04-17T13:30:03.882Z,43.11
2023-04-17T13:32:30.523Z,43.07
2023-04-17T13:34:58.717Z,43.53
2023-04-17T13:37:25.886Z,43.09
2023-04-17T13:39:52.663Z,43.37
2023-04-17T13:42:19.302Z,43.21
2023-04-17T13:44:45.946Z,43.38
2023-04-17T13:47:13.312Z,43.44
2023-04-17T13:49:39.942Z,43.11
2023-04-17T13:52:07.163Z,43.22
2023-04-17T13:54:33.768Z,43.39
2023-04-17T13:57:01.189Z,43.10
2023-04-17T13:59:27.965Z,42.96
2023-04-17T14:01:54.656Z,43.19
2023-04-17T14:04:22.083Z,43.08
2023-04-17T14:06:50.882Z,43.46
2023-04-17T14:09:17.706Z,42.90
2023-04-17T14:11:44.259Z,43.00
2023-04-17T14:14:12.794Z,43.02
2023-04-17T14:16:43.253Z,43.25
2023-04-17T14:19:14.234Z,42.88
2023-04-17T14:21:41.420Z,43.21
2023-04-17T14:24:08.140Z,43.22
2023-04-17T14:26:34.814Z,43.08
2023-04-17T14:29:01.552Z,43.12
2023-04-17T14:31:28.252Z,42.95
2023-04-17T14:33:54.912Z,43.23
2023-04-17T14:36:21.486Z,43.07
2023-04-17T14:38:51.149Z,43.21
2023-04-17T14:41:18.049Z,43.30
2023-04-17T14:43:44.849Z,43.09
2023-04-17T14:46:11.565Z,43.18
2023-04-17T14:48:48.055Z,43.02
2023-04-17T14:51:22.341Z,43.05
2023-04-17T14:53:48.972Z,43.42
2023-04-17T14:56:15.969Z,43.31
2023-04-17T14:58:43.181Z,43.34
2023-04-17T15:01:09.903Z,43.11
2023-04-17T15:03:36.828Z,43.37
2023-04-17T15:06:03.541Z,43.14
2023-04-17T15:08:32.981Z,42.93
2023-04-17T15:10:59.548Z,42.93
2023-04-17T15:13:26.246Z,43.03
2023-04-17T15:15:52.908Z,42.81
2023-04-17T15:18:19.596Z,42.90
2023-04-17T15:20:46.439Z,42.97
2023-04-17T15:23:13.104Z,43.22
2023-04-17T15:25:39.832Z,42.81
2023-04-17T15:28:06.654Z,43.20
2023-04-17T15:30:33.217Z,42.99
2023-04-17T15:32:59.907Z,42.93
2023-04-17T15:35:26.577Z,42.99
2023-04-17T15:37:53.147Z,43.35
2023-04-17T15:40:19.765Z,42.91
2023-04-17T15:42:46.356Z,43.04
2023-04-17T15:45:12.912Z,42.98
2023-04-17T15:47:39.498Z,43.04
2023-04-17T15:50:06.732Z,43.26
2023-04-17T15:52:33.361Z,43.27
2023-04-17T15:55:00.024Z,43.18
2023-04-17T15:57:26.679Z,42.88
2023-04-17T15:59:53.232Z,42.84
2023-04-17T16:02:19.958Z,43.25
2023-04-17T16:04:46.923Z,42.91
2023-04-17T16:07:14.225Z,43.04
2023-04-17T16:09:40.809Z,43.04
2023-04-17T16:12:09.902Z,43.13
2023-04-17T16:14:37.102Z,43.25
2023-04-17T16:17:04.011Z,42.79
2023-04-17T16:19:30.841Z,42.77
2023-04-17T16:21:57.806Z,43.14
2023-04-17T16:24:25.115Z,42.88
2023-04-17T16:26:57.235Z,42.75
2023-04-17T16:29:24.629Z,43.09
2023-04-17T16:31:52.093Z,42.91
2023-04-17T16:34:19.460Z,42.91
2023-04-17T16:36:46.168Z,42.71
2023-04-17T16:39:13.552Z,42.77
2023-04-17T16:41:40.318Z,42.75
2023-04-17T16:44:06.931Z,42.88
2023-04-17T16:46:45.603Z,43.06
2023-04-17T16:49:18.591Z,42.62
2023-04-17T16:51:45.156Z,42.88
2023-04-17T16:54:11.995Z,42.77
2023-04-17T16:56:38.855Z,42.88
2023-04-17T16:59:05.662Z,42.74
2023-04-17T17:01:32.549Z,42.97
2023-04-17T17:03:59.298Z,42.71
2023-04-17T17:06:25.876Z,42.94
2023-04-17T17:08:54.571Z,42.88
2023-04-17T17:11:21.996Z,42.72
2023-04-17T17:13:49.876Z,43.03
2023-04-17T17:16:18.613Z,42.61
2023-04-17T17:18:45.782Z,42.82
2023-04-17T17:21:12.444Z,42.97
2023-04-17T17:23:39.226Z,42.90
2023-04-17T17:26:06.404Z,42.95
2023-04-17T17:28:33.516Z,42.80
2023-04-17T17:31:04.485Z,43.06
2023-04-17T17:33:32.185Z,42.58
2023-04-17T17:35:59.129Z,42.74
2023-04-17T17:38:28.529Z,43.02
2023-04-17T17:40:58.236Z,42.79
2023-04-17T17:43:24.850Z,42.85
2023-04-17T17:45:51.517Z,42.84
2023-04-17T17:48:20.350Z,42.65
2023-04-17T17:50:47.026Z,42.86
2023-04-17T17:53:13.663Z,43.07
2023-04-17T17:55:40.252Z,43.00
2023-04-17T17:58:08.073Z,43.30
2023-04-17T18:00:35.166Z,42.90
2023-04-17T18:03:02.182Z,42.95
2023-04-17T18:05:29.008Z,43.01
2023-04-17T18:07:55.811Z,43.36
2023-04-17T18:10:22.406Z,43.00
2023-04-17T18:12:49.772Z,42.72
2023-04-17T18:15:16.523Z,42.77
2023-04-17T18:17:43.158Z,42.91
2023-04-17T18:20:10.113Z,42.77
2023-04-17T18:22:38.366Z,43.15
2023-04-17T18:25:06.850Z,42.92
2023-04-17T18:27:36.258Z,43.00
2023-04-17T18:30:07.422Z,43.03
2023-04-17T18:32:34.659Z,43.00
2023-04-17T18:35:02.023Z,43.09
2023-04-17T18:37:28.986Z,43.44
2023-04-17T18:39:55.540Z,43.27
2023-04-17T18:42:22.948Z,43.18
2023-04-17T18:44:49.961Z,43.37
2023-04-17T18:47:16.784Z,43.20
2023-04-17T18:49:43.388Z,42.84
2023-04-17T18:52:09.951Z,43.20
2023-04-17T18:54:36.558Z,42.93
2023-04-17T18:57:03.166Z,42.71
2023-04-17T18:59:30.275Z,42.68
2023-04-17T19:01:56.967Z,42.80
2023-04-17T19:04:23.583Z,42.95
2023-04-17T19:06:50.191Z,42.58
2023-04-17T19:09:16.796Z,42.67
2023-04-17T19:11:43.418Z,42.44
2023-04-17T19:14:10.004Z,42.78
2023-04-17T19:16:37.369Z,42.72
2023-04-17T19:19:05.587Z,42.92
2023-04-17T19:21:32.825Z,42.98
2023-04-17T19:23:59.493Z,43.21
2023-04-17T19:26:26.146Z,43.44
2023-04-17T19:28:52.717Z,43.67
2023-04-17T19:31:19.305Z,43.61
2023-04-17T19:33:46.023Z,43.52
2023-04-17T19:38:38.940Z,43.76
2023-04-17T19:43:42.085Z,43.92
2023-04-17T19:48:37.999Z,44.00
2023-04-17T19:51:07.391Z,44.11
2023-04-17T19:53:35.300Z,44.13
2023-04-17T19:56:02.302Z,43.79
2023-04-17T19:58:28.982Z,43.73
2023-04-17T20:00:55.654Z,43.75
2023-04-17T20:03:22.475Z,44.10
2023-04-17T20:05:49.482Z,43.77
2023-04-17T20:08:16.055Z,44.24
2023-04-17T20:10:42.679Z,43.79
2023-04-17T20:13:11.080Z,43.86
2023-04-17T20:15:38.499Z,44.01
2023-04-17T20:18:11.308Z,43.89
2023-04-17T20:20:38.418Z,43.92
2023-04-17T20:23:05.471Z,43.83
2023-04-17T20:25:32.040Z,44.03
2023-04-17T20:27:58.624Z,44.18
2023-04-17T20:30:25.521Z,44.27
2023-04-17T20:32:52.228Z,44.07
2023-04-17T20:35:23.629Z,44.27
2023-04-17T20:37:51.718Z,44.01
2023-04-17T20:40:18.768Z,44.33
2023-04-17T20:42:45.533Z,44.11
2023-04-17T20:45:12.109Z,43.98
2023-04-17T20:47:49.348Z,44.04
2023-04-17T20:50:22.388Z,44.02
2023-04-17T20:52:48.936Z,43.79
2023-04-17T20:55:18.250Z,43.78
2023-04-17T20:57:45.091Z,43.84
2023-04-17T21:00:12.285Z,43.66
2023-04-17T21:02:39.216Z,43.62
2023-04-17T21:05:06.799Z,43.48
2023-04-17T21:07:33.363Z,43.58
2023-04-17T21:09:59.917Z,43.56
2023-04-17T21:12:26.489Z,43.91
2023-04-17T21:14:53.039Z,43.78
2023-04-17T21:17:19.826Z,43.57
2023-04-17T21:19:46.377Z,43.52
2023-04-17T21:22:13.123Z,43.62
2023-04-17T21:24:39.761Z,43.78
2023-04-17T21:27:06.346Z,43.55
2023-04-17T21:29:32.936Z,43.17
2023-04-17T21:31:59.780Z,43.18
2023-04-17T21:34:26.492Z,43.48
2023-04-17T21:36:54.088Z,43.19
2023-04-17T21:39:21.253Z,43.53
2023-04-17T21:41:47.922Z,43.26
2023-04-17T21:44:15.222Z,43.47
2023-04-17T21:46:44.849Z,43.13
2023-04-17T21:49:11.500Z,43.24
2023-04-17T21:51:38.066Z,42.93
2023-04-17T21:54:04.639Z,43.28
2023-04-17T21:56:31.652Z,43.15
2023-04-17T21:58:58.276Z,43.29
2023-04-17T22:01:24.966Z,43.47
2023-04-17T22:03:51.638Z,43.05
2023-04-17T22:06:19.434Z,43.41
2023-04-17T22:08:46.363Z,43.39
2023-04-17T22:11:12.939Z,43.33
2023-04-17T22:13:39.551Z,42.86
2023-04-17T22:16:06.550Z,43.46
2023-04-17T22:18:33.126Z,43.24
2023-04-17T22:20:59.681Z,43.05
2023-04-17T22:23:26.248Z,43.13
2023-04-17T22:25:52.857Z,43.26
2023-04-17T22:28:19.511Z,43.24
2023-04-17T22:30:49.951Z,43.26
2023-04-17T22:33:16.562Z,43.20
2023-04-17T22:35:43.141Z,43.19
2023-04-17T22:38:09.720Z,43.56
2023-04-17T22:40:37.694Z,43.17
2023-04-17T22:43:04.369Z,43.32
2023-04-17T22:45:30.920Z,43.17
2023-04-17T22:47:57.542Z,43.37
2023-04-17T22:50:24.258Z,43.23
2023-04-17T22:52:51.000Z,43.31
2023-04-17T22:55:17.613Z,43.35
2023-04-17T22:57:44.605Z,43.41
2023-04-17T23:00:11.563Z,43.12
2023-04-17T23:02:38.267Z,43.33
2023-04-17T23:05:06.102Z,43.31
2023-04-17T23:07:32.868Z,43.04
2023-04-17T23:10:18.638Z,42.96
2023-04-17T23:12:45.325Z,43.08
2023-04-17T23:15:12.360Z,42.91
2023-04-17T23:17:39.031Z,43.02
2023-04-17T23:20:06.156Z,43.06
2023-04-17T23:22:32.772Z,43.28
2023-04-17T23:24:59.452Z,43.24
2023-04-17T23:27:26.015Z,43.33
2023-04-17T23:29:52.612Z,43.44
2023-04-17T23:32:19.327Z,42.98
2023-04-17T23:34:45.955Z,42.98
2023-04-17T23:37:12.537Z,43.09
2023-04-17T23:39:39.369Z,42.84
2023-04-17T23:42:07.225Z,42.93
2023-04-17T23:44:34.614Z,43.36
2023-04-17T23:47:01.954Z,43.01
2023-04-17T23:49:28.657Z,42.89
2023-04-17T23:51:55.220Z,43.02
2023-04-17T23:54:21.784Z,43.27
2023-04-17T23:56:48.437Z,43.02
2023-04-17T23:59:15.018Z,42.95
